Time;durP1;ratioP1;P1;durP2;ratioP2;P2;SDS_P1;SDS_P2;PMS_P1;PMS_P2;Temp;Humidity;BMP_temperature;BMP_pressure;BME280_temperature;BME280_humidity;BME280_pressure;Samples;Min_cycle;Max_cycle;Signal;HPM_P1;HPM_P2
2023/10/11 00:09:35;;;;;;;3.47;1.50;;;;;;;;;;20710444;28;20208;-66
2023/10/11 00:19:39;;;;;;;5.63;2.03;;;;;;;;;;20701947;28;20662;-66
2023/10/11 00:29:41;;;;;;;4.33;1.43;;;;;;;;;;20697855;23;20654;-68
2023/10/11 00:39:43;;;;;;;2.67;1.50;;;;;;;;;;20696856;28;20587;-67
2023/10/11 00:49:45;;;;;;;3.23;1.83;;;;;;;;;;20673972;28;20227;-67
2023/10/11 00:59:47;;;;;;;3.70;1.70;;;;;;;;;;20669187;28;20881;-67
2023/10/11 01:09:50;;;;;;;3.50;1.57;;;;;;;;;;20664925;28;20211;-67
2023/10/11 01:19:53;;;;;;;4.07;1.60;;;;;;;;;;20704060;28;20652;-68
2023/10/11 01:29:55;;;;;;;3.23;1.57;;;;;;;;;;20692849;28;20223;-67
2023/10/11 01:39:57;;;;;;;3.07;1.47;;;;;;;;;;20723269;28;20900;-67
2023/10/11 01:49:59;;;;;;;3.20;1.47;;;;;;;;;;20688392;28;20219;-67
2023/10/11 02:00:04;;;;;;;3.77;1.50;;;;;;;;;;20689156;28;20617;-67
2023/10/11 02:10:14;;;;;;;3.60;1.77;;;;;;;;;;20726577;28;20583;-67
2023/10/11 02:20:20;;;;;;;3.73;1.57;;;;;;;;;;20695763;28;20253;-67
2023/10/11 02:30:26;;;;;;;2.70;1.23;;;;;;;;;;20709278;28;20953;-67
2023/10/11 02:40:30;;;;;;;4.43;1.63;;;;;;;;;;20707097;28;20676;-67
2023/10/11 02:50:36;;;;;;;2.33;1.40;;;;;;;;;;20716407;28;20571;-68
2023/10/11 03:00:43;;;;;;;4.13;1.60;;;;;;;;;;20723069;28;20292;-67
2023/10/11 03:10:59;;;;;;;2.70;1.60;;;;;;;;;;20713422;28;20304;-67
2023/10/11 03:21:09;;;;;;;2.93;1.30;;;;;;;;;;20705806;28;20215;-68
2023/10/11 03:31:12;;;;;;;3.60;1.93;;;16.40;99.90;;;;;;20696980;28;20285;-67
2023/10/11 03:41:17;;;;;;;2.93;1.60;;;;;;;;;;20704117;28;20215;-67
2023/10/11 03:51:22;;;;;;;2.03;1.43;;;15.80;99.90;;;;;;20704567;28;20219;-67
2023/10/11 04:01:24;;;;;;;2.80;1.80;;;;;;;;;;20703091;28;20222;-67
2023/10/11 04:11:37;;;;;;;4.90;1.90;;;;;;;;;;20722511;28;20277;-67
2023/10/11 04:21:53;;;;;;;2.50;1.40;;;;;;;;;;20716551;28;20705;-67
2023/10/11 04:32:04;;;;;;;5.77;1.73;;;;;;;;;;20717424;28;20253;-67
2023/10/11 04:42:06;;;;;;;3.23;1.53;;;;;;;;;;20701207;28;20303;-67
2023/10/11 04:52:13;;;;;;;4.37;1.70;;;;;;;;;;20699393;28;20191;-67
2023/10/11 05:02:28;;;;;;;2.63;1.70;;;;;;;;;;20715837;28;20289;-67
2023/10/11 05:12:30;;;;;;;2.80;1.30;;;;;;;;;;20723338;28;20214;-67
2023/10/11 05:22:52;;;;;;;3.10;1.50;;;;;;;;;;20711778;28;20311;-67
2023/10/11 05:32:58;;;;;;;6.17;1.90;;;;;;;;;;20706462;28;20249;-67
2023/10/11 05:53:20;;;;;;;3.70;1.53;;;;;;;;;;20708309;28;20265;-69
2023/10/11 06:03:24;;;;;;;3.93;1.97;;;;;;;;;;20683378;28;20258;-67
2023/10/11 06:13:26;;;;;;;5.23;1.63;;;;;;;;;;20697205;28;20293;-67
2023/10/11 06:23:30;;;;;;;3.80;1.40;;;;;;;;;;20669636;28;20227;-66
2023/10/11 06:33:34;;;;;;;3.90;1.90;;;;;;;;;;20695500;22;20211;-65
2023/10/11 06:43:37;;;;;;;2.80;1.13;;;;;;;;;;20807210;28;20279;-65
2023/10/11 06:53:42;;;;;;;3.83;1.50;;;;;;;;;;20726863;28;20219;-65
2023/10/11 07:03:45;;;;;;;4.40;1.40;;;;;;;;;;20738390;28;20635;-65
2023/10/11 07:13:54;;;;;;;3.50;1.60;;;;;;;;;;20741153;28;20285;-65
2023/10/11 07:23:56;;;;;;;4.13;1.60;;;;;;;;;;20748020;28;20219;-65
2023/10/11 07:34:06;;;;;;;2.70;1.40;;;;;;;;;;20760792;28;20214;-65
2023/10/11 07:44:10;;;;;;;3.57;1.63;;;16.70;99.90;;;;;;20729689;28;20705;-66
2023/10/11 07:54:19;;;;;;;2.47;1.17;;;;;;;;;;20727747;28;20241;-66
2023/10/11 08:04:22;;;;;;;3.60;1.20;;;;;;;;;;20717901;28;20210;-66
2023/10/11 08:14:29;;;;;;;2.70;1.47;;;17.70;99.90;;;;;;20743071;28;20214;-66
2023/10/11 08:24:40;;;;;;;3.33;1.37;;;;;;;;;;20727629;28;20222;-66
2023/10/11 08:34:46;;;;;;;5.40;1.30;;;;;;;;;;20716144;28;20234;-66
2023/10/11 08:44:49;;;;;;;5.97;1.50;;;;;;;;;;20708061;28;20215;-66
2023/10/11 08:54:51;;;;;;;3.03;1.60;;;18.70;99.90;;;;;;20738060;28;20831;-66
2023/10/11 09:05:00;;;;;;;6.33;1.47;;;;;;;;;;20753847;28;20605;-66
2023/10/11 09:15:14;;;;;;;3.03;1.40;;;;;;;;;;20768863;28;20269;-66
2023/10/11 09:25:24;;;;;;;5.07;1.67;;;;;;;;;;20721024;28;20847;-66
2023/10/11 09:35:28;;;;;;;4.43;1.30;;;;;;;;;;20716827;28;21080;-66
2023/10/11 09:45:41;;;;;;;2.80;1.40;;;20.10;99.90;;;;;;20774065;28;20215;-65
2023/10/11 09:55:58;;;;;;;8.80;1.77;;;20.30;99.90;;;;;;20732865;28;20217;-66
2023/10/11 10:06:19;;;;;;;6.17;1.60;;;20.60;99.90;;;;;;20768138;28;20282;-67
2023/10/11 10:16:40;;;;;;;4.60;1.57;;;;;;;;;;20741676;28;20213;-66
2023/10/11 10:26:43;;;;;;;3.77;1.30;;;;;;;;;;20739299;28;20695;-66
2023/10/11 10:36:45;;;;;;;5.33;2.03;;;;;;;;;;20752605;28;20228;-66
2023/10/11 10:46:53;;;;;;;5.53;1.77;;;21.60;99.90;;;;;;20720003;28;20219;-66
2023/10/11 10:56:57;;;;;;;3.00;1.30;;;;;;;;;;20720897;28;20214;-68
2023/10/11 11:06:59;;;;;;;5.93;1.60;;;;;;;;;;20720495;28;20293;-68
2023/10/11 11:17:10;;;;;;;4.67;1.60;;;;;;;;;;20688445;28;20222;-67
2023/10/11 11:27:30;;;;;;;5.23;1.27;;;;;;;;;;20733299;28;20289;-66
2023/10/11 11:37:34;;;;;;;5.73;1.43;;;22.90;99.90;;;;;;20703378;28;20222;-68
2023/10/11 11:47:36;;;;;;;4.97;1.45;;;;;;;;;;20722987;28;20217;-67
2023/10/11 11:57:38;;;;;;;3.70;1.30;;;;;;;;;;20782710;28;20237;-68
2023/10/11 12:07:40;;;;;;;3.33;1.08;;;;;;;;;;20736957;28;20277;-68
2023/10/11 12:17:42;;;;;;;4.20;1.50;;;;;;;;;;20728060;28;20218;-68
2023/10/11 12:27:44;;;;;;;4.90;1.52;;;;;;;;;;20742064;28;20243;-66
2023/10/11 12:37:46;;;;;;;3.72;1.35;;;;;;;;;;20765935;22;20269;-67
2023/10/11 12:47:48;;;;;;;5.60;1.20;;;;;;;;;;20750244;28;20299;-66
2023/10/11 12:57:50;;;;;;;4.57;1.60;;;;;;;;;;20778675;28;20220;-66
2023/10/11 13:07:52;;;;;;;3.55;1.05;;;;;;;;;;20763691;28;20663;-67
2023/10/11 13:17:54;;;;;;;2.88;0.93;;;;;;;;;;20774481;28;20262;-67
2023/10/11 13:27:57;;;;;;;4.70;1.27;;;;;;;;;;20756551;28;20228;-67
2023/10/11 13:37:58;;;;;;;3.10;1.42;;;;;;;;;;20741854;28;20305;-67
2023/10/11 13:48:04;;;;;;;2.13;1.00;;;;;;;;;;20771497;28;20223;-67
2023/10/11 13:58:06;;;;;;;2.65;1.10;;;;;;;;;;20733748;28;20216;-67
2023/10/11 14:18:27;;;;;;;4.40;1.27;;;25.40;99.90;;;;;;20786061;28;20336;-66
2023/10/11 14:28:29;;;;;;;3.90;1.05;;;;;;;;;;20783893;28;20216;-66
2023/10/11 14:38:31;;;;;;;3.92;1.25;;;;;;;;;;20767999;28;20224;-66
2023/10/11 14:48:35;;;;;;;2.58;1.10;;;19.70;99.90;;;;;;20783901;28;20567;-65
2023/10/11 14:58:37;;;;;;;3.50;1.20;;;;;;;;;;20742239;28;20220;-66
2023/10/11 15:08:43;;;;;;;2.40;1.00;;;23.00;99.90;;;;;;20760859;28;20281;-66
2023/10/11 15:18:45;;;;;;;3.25;1.10;;;;;;;;;;20790242;28;20763;-66
2023/10/11 15:28:47;;;;;;;2.90;0.90;;;;;;;;;;20745997;28;20280;-66
2023/10/11 15:38:52;;;;;;;3.45;1.17;;;;;;;;;;20767504;28;20699;-66
2023/10/11 15:48:55;;;;;;;1.42;0.73;;;;;;;;;;20755037;28;20218;-66
2023/10/11 15:58:56;;;;;;;2.70;1.17;;;;;;;;;;20744723;28;20219;-66
2023/10/11 16:08:59;;;;;;;3.30;1.10;;;;;;;;;;20765754;28;20211;-65
2023/10/11 16:19:01;;;;;;;4.45;1.60;;;;;;;;;;20771990;28;20214;-65
2023/10/11 16:29:03;;;;;;;4.73;1.40;;;;;;;;;;20751879;28;20391;-67
2023/10/11 16:39:05;;;;;;;5.47;1.48;;;;;;;;;;20728166;28;20225;-66
2023/10/11 16:49:10;;;;;;;2.42;0.95;;;;;;;;;;20755326;28;20219;-67
2023/10/11 16:59:13;;;;;;;4.33;1.57;;;;;;;;;;20762133;28;20681;-66
2023/10/11 17:09:14;;;;;;;3.30;1.47;;;;;;;;;;20755124;28;20216;-67
2023/10/11 17:19:18;;;;;;;2.73;1.30;;;;;;;;;;20769722;28;20228;-67
2023/10/11 17:29:19;;;;;;;7.40;1.30;;;;;;;;;;20781759;28;20535;-67
2023/10/11 17:39:21;;;;;;;2.70;1.27;;;;;;;;;;20783262;28;20254;-67
2023/10/11 17:49:23;;;;;;;6.43;1.30;;;;;;;;;;20780741;28;20208;-67
2023/10/11 17:59:25;;;;;;;3.90;1.20;;;;;;;;;;20774722;28;20668;-67
2023/10/11 18:09:27;;;;;;;5.80;1.67;;;;;;;;;;20789381;28;20221;-66
2023/10/11 18:19:29;;;;;;;5.30;1.83;;;;;;;;;;20766924;28;20216;-67
2023/10/11 18:29:31;;;;;;;5.40;1.40;;;;;;;;;;20795316;28;20261;-67
2023/10/11 18:39:33;;;;;;;3.00;1.60;;;;;;;;;;20720970;22;20644;-68
2023/10/11 18:49:37;;;;;;;3.00;1.10;;;;;;;;;;20604252;28;20228;-67
2023/10/11 18:59:39;;;;;;;3.10;1.17;;;;;;;;;;20613299;28;20243;-68
2023/10/11 19:09:40;;;;;;;3.03;1.13;;;;;;;;;;20606703;28;20240;-68
2023/10/11 19:19:42;;;;;;;4.97;1.13;;;;;;;;;;20589783;28;20365;-68
2023/10/11 19:29:44;;;;;;;3.53;1.30;;;;;;;;;;20596461;28;20611;-68
2023/10/11 19:39:46;;;;;;;2.50;0.97;;;;;;;;;;20576636;28;20241;-68
2023/10/11 19:49:48;;;;;;;3.07;1.20;;;;;;;;;;20585777;28;20232;-68
2023/10/11 19:59:52;;;;;;;2.60;1.17;;;;;;;;;;20601367;28;20663;-68
2023/10/11 20:09:56;;;;;;;4.17;1.13;;;;;;;;;;20619715;28;20636;-68
2023/10/11 20:19:58;;;;;;;2.07;1.10;;;;;;;;;;20555510;28;20247;-69
2023/10/11 20:30:00;;;;;;;4.47;1.43;;;;;;;;;;20604362;28;20250;-68
2023/10/11 20:40:13;;;;;;;3.70;1.27;;;;;;;;;;20599040;28;20227;-68
2023/10/11 20:50:18;;;;;;;1.77;1.10;;;;;;;;;;20623564;28;20250;-69
2023/10/11 21:00:20;;;;;;;2.93;1.20;;;;;;;;;;20610963;28;20637;-69
2023/10/11 21:10:22;;;;;;;2.90;1.40;;;;;;;;;;20612247;28;20207;-68
2023/10/11 21:20:24;;;;;;;4.23;1.83;;;;;;;;;;20617142;28;20694;-68
2023/10/11 21:30:39;;;;;;;2.90;1.40;;;;;;;;;;20641128;28;20284;-68
2023/10/11 21:40:46;;;;;;;3.97;1.57;;;;;;;;;;20617331;28;20307;-69
2023/10/11 21:50:48;;;;;;;2.60;1.23;;;;;;;;;;20611090;28;20960;-69
2023/10/11 22:01:04;;;;;;;3.40;1.13;;;;;;;;;;20616948;28;20280;-69
2023/10/11 22:11:06;;;;;;;3.00;1.33;;;;;;;;;;20644979;28;20225;-69
2023/10/11 22:21:12;;;;;;;1.97;0.97;;;;;;;;;;20630471;28;20280;-69
2023/10/11 22:31:13;;;;;;;2.43;1.10;;;;;;;;;;20623632;28;20221;-69
2023/10/11 22:41:16;;;;;;;4.80;1.30;;;;;;;;;;20618907;28;20718;-69
2023/10/11 22:51:19;;;;;;;2.73;1.10;;;19.80;99.90;;;;;;20598573;28;20230;-69
2023/10/11 23:01:21;;;;;;;3.60;1.13;;;;;;;;;;20578224;28;20231;-69
2023/10/11 23:11:24;;;;;;;1.73;1.00;;;;;;;;;;20615214;28;20272;-69
2023/10/11 23:21:26;;;;;;;2.43;1.43;;;;;;;;;;20625227;28;20284;-69
2023/10/11 23:31:29;;;;;;;1.97;1.00;;;;;;;;;;20593607;28;20218;-69
2023/10/11 23:41:46;;;;;;;2.23;1.00;;;;;;;;;;20629251;28;20230;-69
2023/10/11 23:51:50;;;;;;;2.10;1.07;;;;;;;;;;20581962;28;20725;-69
